Aviation Digital Data Service (ADDS)

Output produced by METARs form (1720 UTC 03 June 2020)
found at http://www.aviationweather.gov/metar/data/
 
METAR text: YMML 031700Z 24003KT 9999 BKN033 09/06 Q1033 FM1800 36005KT 9999 SCT030
Conditions at: YMML (MELBOURNE INTL A, AU) observed 1700 UTC 03 June 2020
Temperature: 9.0°C (48°F)
Dewpoint: 6.0°C (43°F) [RH = 81%]
Pressure (altimeter): 30.50 inches Hg (1033.0 mb)
Winds: from the WSW (240 degrees) at 3 MPH (3 knots; 1.5 m/s)
Visibility: 6 or more miles (10+ km)
Ceiling: 3300 feet AGL
Clouds: broken clouds at 3300 feet AGL
Weather: no significant weather observed at this time

METAR text: YMML 031630Z 23004KT 9999 BKN033 09/06 Q1034 FM1800 36005KT 9999 SCT030
Conditions at: YMML (MELBOURNE INTL A, AU) observed 1630 UTC 03 June 2020
Temperature: 9.0°C (48°F)
Dewpoint: 6.0°C (43°F) [RH = 81%]
Pressure (altimeter): 30.53 inches Hg (1034.0 mb)
Winds: from the SW (230 degrees) at 5 MPH (4 knots; 2.1 m/s)
Visibility: 6 or more miles (10+ km)
Ceiling: 3300 feet AGL
Clouds: broken clouds at 3300 feet AGL
Weather: no significant weather observed at this time

METAR text: YMML 031600Z 00000KT 9999 BKN033 09/06 Q1034 FM1800 36005KT 9999 SCT030
Conditions at: YMML (MELBOURNE INTL A, AU) observed 1600 UTC 03 June 2020
Temperature: 9.0°C (48°F)
Dewpoint: 6.0°C (43°F) [RH = 81%]
Pressure (altimeter): 30.53 inches Hg (1034.0 mb)
Winds: calm
Visibility: 6 or more miles (10+ km)
Ceiling: 3300 feet AGL
Clouds: broken clouds at 3300 feet AGL
Weather: no significant weather observed at this time

METAR text: YMML 031530Z 22004KT 9999 BKN033 09/05 Q1033 FM1600 28005KT 9999 BKN030
Conditions at: YMML (MELBOURNE INTL A, AU) observed 1530 UTC 03 June 2020
Temperature: 9.0°C (48°F)
Dewpoint: 5.0°C (41°F) [RH = 76%]
Pressure (altimeter): 30.50 inches Hg (1033.0 mb)
Winds: from the SW (220 degrees) at 5 MPH (4 knots; 2.1 m/s)
Visibility: 6 or more miles (10+ km)
Ceiling: 3300 feet AGL
Clouds: broken clouds at 3300 feet AGL
Weather: no significant weather observed at this time

METAR text: YMML 031500Z 22004KT 9999 BKN033 09/06 Q1034 FM1600 28005KT 9999 BKN030
Conditions at: YMML (MELBOURNE INTL A, AU) observed 1500 UTC 03 June 2020
Temperature: 9.0°C (48°F)
Dewpoint: 6.0°C (43°F) [RH = 81%]
Pressure (altimeter): 30.53 inches Hg (1034.0 mb)
Winds: from the SW (220 degrees) at 5 MPH (4 knots; 2.1 m/s)
Visibility: 6 or more miles (10+ km)
Ceiling: 3300 feet AGL
Clouds: broken clouds at 3300 feet AGL
Weather: no significant weather observed at this time

METAR text: YMML 031430Z 22003KT 9999 BKN033 09/05 Q1034 FM1500 28005KT 9999 BKN030
Conditions at: YMML (MELBOURNE INTL A, AU) observed 1430 UTC 03 June 2020
Temperature: 9.0°C (48°F)
Dewpoint: 5.0°C (41°F) [RH = 76%]
Pressure (altimeter): 30.53 inches Hg (1034.0 mb)
Winds: from the SW (220 degrees) at 3 MPH (3 knots; 1.5 m/s)
Visibility: 6 or more miles (10+ km)
Ceiling: 3300 feet AGL
Clouds: broken clouds at 3300 feet AGL
Weather: no significant weather observed at this time

METAR text: YMML 031400Z 22005KT 9999 BKN033 09/05 Q1034 FM1430 28005KT 9999 BKN030
Conditions at: YMML (MELBOURNE INTL A, AU) observed 1400 UTC 03 June 2020
Temperature: 9.0°C (48°F)
Dewpoint: 5.0°C (41°F) [RH = 76%]
Pressure (altimeter): 30.53 inches Hg (1034.0 mb)
Winds: from the SW (220 degrees) at 6 MPH (5 knots; 2.6 m/s)
Visibility: 6 or more miles (10+ km)
Ceiling: 3300 feet AGL
Clouds: broken clouds at 3300 feet AGL
Weather: no significant weather observed at this time

METAR text: YMML 031330Z 22005KT 9999 BKN033 10/04 Q1034 FM1400 28005KT 9999 BKN030
Conditions at: YMML (MELBOURNE INTL A, AU) observed 1330 UTC 03 June 2020
Temperature: 10.0°C (50°F)
Dewpoint: 4.0°C (39°F) [RH = 66%]
Pressure (altimeter): 30.53 inches Hg (1034.0 mb)
Winds: from the SW (220 degrees) at 6 MPH (5 knots; 2.6 m/s)
Visibility: 6 or more miles (10+ km)
Ceiling: 3300 feet AGL
Clouds: broken clouds at 3300 feet AGL
Weather: no significant weather observed at this time

METAR text: YMML 031300Z 21005KT 9999 BKN033 09/05 Q1034 FM1400 28005KT 9999 BKN035
Conditions at: YMML (MELBOURNE INTL A, AU) observed 1300 UTC 03 June 2020
Temperature: 9.0°C (48°F)
Dewpoint: 5.0°C (41°F) [RH = 76%]
Pressure (altimeter): 30.53 inches Hg (1034.0 mb)
Winds: from the SSW (210 degrees) at 6 MPH (5 knots; 2.6 m/s)
Visibility: 6 or more miles (10+ km)
Ceiling: 3300 feet AGL
Clouds: broken clouds at 3300 feet AGL
Weather: no significant weather observed at this time

METAR text: YMML 031230Z 21004KT 9999 BKN035 10/05 Q1034 FM1300 28005KT 9999 BKN035
Conditions at: YMML (MELBOURNE INTL A, AU) observed 1230 UTC 03 June 2020
Temperature: 10.0°C (50°F)
Dewpoint: 5.0°C (41°F) [RH = 71%]
Pressure (altimeter): 30.53 inches Hg (1034.0 mb)
Winds: from the SSW (210 degrees) at 5 MPH (4 knots; 2.1 m/s)
Visibility: 6 or more miles (10+ km)
Ceiling: 3500 feet AGL
Clouds: broken clouds at 3500 feet AGL
Weather: no significant weather observed at this time

METAR text: YMML 031200Z 21004KT 9999 BKN035 09/06 Q1034 FM1230 28005KT 9999 BKN035
Conditions at: YMML (MELBOURNE INTL A, AU) observed 1200 UTC 03 June 2020
Temperature: 9.0°C (48°F)
Dewpoint: 6.0°C (43°F) [RH = 81%]
Pressure (altimeter): 30.53 inches Hg (1034.0 mb)
Winds: from the SSW (210 degrees) at 5 MPH (4 knots; 2.1 m/s)
Visibility: 6 or more miles (10+ km)
Ceiling: 3500 feet AGL
Clouds: broken clouds at 3500 feet AGL
Weather: no significant weather observed at this time

METAR text: YMML 031130Z 21005KT 9999 BKN035 09/05 Q1033 FM1230 28005KT 9999 BKN035
Conditions at: YMML (MELBOURNE INTL A, AU) observed 1130 UTC 03 June 2020
Temperature: 9.0°C (48°F)
Dewpoint: 5.0°C (41°F) [RH = 76%]
Pressure (altimeter): 30.50 inches Hg (1033.0 mb)
Winds: from the SSW (210 degrees) at 6 MPH (5 knots; 2.6 m/s)
Visibility: 6 or more miles (10+ km)
Ceiling: 3500 feet AGL
Clouds: broken clouds at 3500 feet AGL
Weather: no significant weather observed at this time

METAR text: YMML 031100Z 21004KT 9999 BKN035 10/05 Q1033 FM1230 28005KT 9999 BKN035
Conditions at: YMML (MELBOURNE INTL A, AU) observed 1100 UTC 03 June 2020
Temperature: 10.0°C (50°F)
Dewpoint: 5.0°C (41°F) [RH = 71%]
Pressure (altimeter): 30.50 inches Hg (1033.0 mb)
Winds: from the SSW (210 degrees) at 5 MPH (4 knots; 2.1 m/s)
Visibility: 6 or more miles (10+ km)
Ceiling: 3500 feet AGL
Clouds: broken clouds at 3500 feet AGL
Weather: no significant weather observed at this time

METAR text: YMML 031030Z 19005KT 9999 BKN037 10/05 Q1033 FM1230 28005KT 9999 BKN035
Conditions at: YMML (MELBOURNE INTL A, AU) observed 1030 UTC 03 June 2020
Temperature: 10.0°C (50°F)
Dewpoint: 5.0°C (41°F) [RH = 71%]
Pressure (altimeter): 30.50 inches Hg (1033.0 mb)
Winds: from the S (190 degrees) at 6 MPH (5 knots; 2.6 m/s)
Visibility: 6 or more miles (10+ km)
Ceiling: 3700 feet AGL
Clouds: broken clouds at 3700 feet AGL
Weather: no significant weather observed at this time

METAR text: YMML 031000Z 18008KT 9999 BKN037 11/04 Q1033 FM1230 28005KT 9999 BKN030
Conditions at: YMML (MELBOURNE INTL A, AU) observed 1000 UTC 03 June 2020
Temperature: 11.0°C (52°F)
Dewpoint: 4.0°C (39°F) [RH = 62%]
Pressure (altimeter): 30.50 inches Hg (1033.0 mb)
Winds: from the S (180 degrees) at 9 MPH (8 knots; 4.1 m/s)
Visibility: 6 or more miles (10+ km)
Ceiling: 3700 feet AGL
Clouds: broken clouds at 3700 feet AGL
Weather: no significant weather observed at this time

METAR text: YMML 030930Z 17009KT 9999 BKN037 11/03 Q1033 NOSIG
Conditions at: YMML (MELBOURNE INTL A, AU) observed 0930 UTC 03 June 2020
Temperature: 11.0°C (52°F)
Dewpoint: 3.0°C (37°F) [RH = 58%]
Pressure (altimeter): 30.50 inches Hg (1033.0 mb)
Winds: from the S (170 degrees) at 10 MPH (9 knots; 4.6 m/s)
Visibility: 6 or more miles (10+ km)
Ceiling: 3700 feet AGL
Clouds: broken clouds at 3700 feet AGL
Weather: no significant weather observed at this time

METAR text: YMML 030900Z 19007KT 9999 BKN035 11/04 Q1033
Conditions at: YMML (MELBOURNE INTL A, AU) observed 0900 UTC 03 June 2020
Temperature: 11.0°C (52°F)
Dewpoint: 4.0°C (39°F) [RH = 62%]
Pressure (altimeter): 30.50 inches Hg (1033.0 mb)
Winds: from the S (190 degrees) at 8 MPH (7 knots; 3.6 m/s)
Visibility: 6 or more miles (10+ km)
Ceiling: 3500 feet AGL
Clouds: broken clouds at 3500 feet AGL
Weather: no significant weather observed at this time

METAR text: YMML 030830Z 18009KT 9999 BKN034 11/03 Q1032 NOSIG
Conditions at: YMML (MELBOURNE INTL A, AU) observed 0830 UTC 03 June 2020
Temperature: 11.0°C (52°F)
Dewpoint: 3.0°C (37°F) [RH = 58%]
Pressure (altimeter): 30.47 inches Hg (1032.0 mb)
Winds: from the S (180 degrees) at 10 MPH (9 knots; 4.6 m/s)
Visibility: 6 or more miles (10+ km)
Ceiling: 3400 feet AGL
Clouds: broken clouds at 3400 feet AGL
Weather: no significant weather observed at this time

METAR text: YMML 030800Z 19011KT 9999 BKN034 11/04 Q1032
Conditions at: YMML (MELBOURNE INTL A, AU) observed 0800 UTC 03 June 2020
Temperature: 11.0°C (52°F)
Dewpoint: 4.0°C (39°F) [RH = 62%]
Pressure (altimeter): 30.47 inches Hg (1032.0 mb)
Winds: from the S (190 degrees) at 13 MPH (11 knots; 5.7 m/s)
Visibility: 6 or more miles (10+ km)
Ceiling: 3400 feet AGL
Clouds: broken clouds at 3400 feet AGL
Weather: no significant weather observed at this time

METAR text: YMML 030730Z 19008KT 9999 BKN030 11/04 Q1032 NOSIG
Conditions at: YMML (MELBOURNE INTL A, AU) observed 0730 UTC 03 June 2020
Temperature: 11.0°C (52°F)
Dewpoint: 4.0°C (39°F) [RH = 62%]
Pressure (altimeter): 30.47 inches Hg (1032.0 mb)
Winds: from the S (190 degrees) at 9 MPH (8 knots; 4.1 m/s)
Visibility: 6 or more miles (10+ km)
Ceiling: 3000 feet AGL
Clouds: broken clouds at 3000 feet AGL
Weather: no significant weather observed at this time

METAR text: YMML 030700Z 19008KT 9999 BKN036 11/04 Q1032
Conditions at: YMML (MELBOURNE INTL A, AU) observed 0700 UTC 03 June 2020
Temperature: 11.0°C (52°F)
Dewpoint: 4.0°C (39°F) [RH = 62%]
Pressure (altimeter): 30.47 inches Hg (1032.0 mb)
Winds: from the S (190 degrees) at 9 MPH (8 knots; 4.1 m/s)
Visibility: 6 or more miles (10+ km)
Ceiling: 3600 feet AGL
Clouds: broken clouds at 3600 feet AGL
Weather: no significant weather observed at this time

METAR text: YMML 030630Z 19011KT 9999 BKN038 11/03 Q1031 NOSIG
Conditions at: YMML (MELBOURNE INTL A, AU) observed 0630 UTC 03 June 2020
Temperature: 11.0°C (52°F)
Dewpoint: 3.0°C (37°F) [RH = 58%]
Pressure (altimeter): 30.44 inches Hg (1031.0 mb)
Winds: from the S (190 degrees) at 13 MPH (11 knots; 5.7 m/s)
Visibility: 6 or more miles (10+ km)
Ceiling: 3800 feet AGL
Clouds: broken clouds at 3800 feet AGL
Weather: no significant weather observed at this time

METAR text: YMML 030600Z 18013KT 9999 BKN036 11/03 Q1031
Conditions at: YMML (MELBOURNE INTL A, AU) observed 0600 UTC 03 June 2020
Temperature: 11.0°C (52°F)
Dewpoint: 3.0°C (37°F) [RH = 58%]
Pressure (altimeter): 30.44 inches Hg (1031.0 mb)
Winds: from the S (180 degrees) at 15 MPH (13 knots; 6.7 m/s)
Visibility: 6 or more miles (10+ km)
Ceiling: 3600 feet AGL
Clouds: broken clouds at 3600 feet AGL
Weather: no significant weather observed at this time

METAR text: YMML 030530Z 19014KT 9999 BKN036 12/03 Q1031 NOSIG
Conditions at: YMML (MELBOURNE INTL A, AU) observed 0530 UTC 03 June 2020
Temperature: 12.0°C (54°F)
Dewpoint: 3.0°C (37°F) [RH = 54%]
Pressure (altimeter): 30.44 inches Hg (1031.0 mb)
Winds: from the S (190 degrees) at 16 MPH (14 knots; 7.2 m/s)
Visibility: 6 or more miles (10+ km)
Ceiling: 3600 feet AGL
Clouds: broken clouds at 3600 feet AGL
Weather: no significant weather observed at this time

METAR text: YMML 030500Z 20013KT 9999 BKN038 12/03 Q1031
Conditions at: YMML (MELBOURNE INTL A, AU) observed 0500 UTC 03 June 2020
Temperature: 12.0°C (54°F)
Dewpoint: 3.0°C (37°F) [RH = 54%]
Pressure (altimeter): 30.44 inches Hg (1031.0 mb)
Winds: from the SSW (200 degrees) at 15 MPH (13 knots; 6.7 m/s)
Visibility: 6 or more miles (10+ km)
Ceiling: 3800 feet AGL
Clouds: broken clouds at 3800 feet AGL
Weather: no significant weather observed at this time

METAR text: YMML 030430Z 19016KT 9999 BKN036 12/03 Q1030 NOSIG
Conditions at: YMML (MELBOURNE INTL A, AU) observed 0430 UTC 03 June 2020
Temperature: 12.0°C (54°F)
Dewpoint: 3.0°C (37°F) [RH = 54%]
Pressure (altimeter): 30.41 inches Hg (1030.0 mb)
Winds: from the S (190 degrees) at 18 MPH (16 knots; 8.2 m/s)
Visibility: 6 or more miles (10+ km)
Ceiling: 3600 feet AGL
Clouds: broken clouds at 3600 feet AGL
Weather: no significant weather observed at this time

METAR text: YMML 030400Z 18017KT 9999 SCT035 13/03 Q1030
Conditions at: YMML (MELBOURNE INTL A, AU) observed 0400 UTC 03 June 2020
Temperature: 13.0°C (55°F)
Dewpoint: 3.0°C (37°F) [RH = 51%]
Pressure (altimeter): 30.41 inches Hg (1030.0 mb)
Winds: from the S (180 degrees) at 20 MPH (17 knots; 8.7 m/s)
Visibility: 6 or more miles (10+ km)
Ceiling: at least 12,000 feet AGL
Clouds: scattered clouds at 3500 feet AGL
Weather: no significant weather observed at this time

METAR text: YMML 030330Z 18015KT 9999 BKN035 12/05 Q1030 NOSIG
Conditions at: YMML (MELBOURNE INTL A, AU) observed 0330 UTC 03 June 2020
Temperature: 12.0°C (54°F)
Dewpoint: 5.0°C (41°F) [RH = 62%]
Pressure (altimeter): 30.41 inches Hg (1030.0 mb)
Winds: from the S (180 degrees) at 17 MPH (15 knots; 7.7 m/s)
Visibility: 6 or more miles (10+ km)
Ceiling: 3500 feet AGL
Clouds: broken clouds at 3500 feet AGL
Weather: no significant weather observed at this time

METAR text: YMML 030300Z 19015KT 9999 BKN036 13/04 Q1030
Conditions at: YMML (MELBOURNE INTL A, AU) observed 0300 UTC 03 June 2020
Temperature: 13.0°C (55°F)
Dewpoint: 4.0°C (39°F) [RH = 54%]
Pressure (altimeter): 30.41 inches Hg (1030.0 mb)
Winds: from the S (190 degrees) at 17 MPH (15 knots; 7.7 m/s)
Visibility: 6 or more miles (10+ km)
Ceiling: 3600 feet AGL
Clouds: broken clouds at 3600 feet AGL
Weather: no significant weather observed at this time

METAR text: YMML 030230Z 19015KT 9999 BKN040 13/03 Q1030 NOSIG
Conditions at: YMML (MELBOURNE INTL A, AU) observed 0230 UTC 03 June 2020
Temperature: 13.0°C (55°F)
Dewpoint: 3.0°C (37°F) [RH = 51%]
Pressure (altimeter): 30.41 inches Hg (1030.0 mb)
Winds: from the S (190 degrees) at 17 MPH (15 knots; 7.7 m/s)
Visibility: 6 or more miles (10+ km)
Ceiling: 4000 feet AGL
Clouds: broken clouds at 4000 feet AGL
Weather: no significant weather observed at this time

METAR text: YMML 030200Z 19016KT 9999 FEW030 BKN040 12/03 Q1030
Conditions at: YMML (MELBOURNE INTL A, AU) observed 0200 UTC 03 June 2020
Temperature: 12.0°C (54°F)
Dewpoint: 3.0°C (37°F) [RH = 54%]
Pressure (altimeter): 30.41 inches Hg (1030.0 mb)
Winds: from the S (190 degrees) at 18 MPH (16 knots; 8.2 m/s)
Visibility: 6 or more miles (10+ km)
Ceiling: 4000 feet AGL
Clouds: few clouds at 3000 feet AGL
broken clouds at 4000 feet AGL
Weather: no significant weather observed at this time

METAR text: YMML 030130Z 20015KT 9999 FEW025 BKN040 12/04 Q1030 NOSIG
Conditions at: YMML (MELBOURNE INTL A, AU) observed 0130 UTC 03 June 2020
Temperature: 12.0°C (54°F)
Dewpoint: 4.0°C (39°F) [RH = 58%]
Pressure (altimeter): 30.41 inches Hg (1030.0 mb)
Winds: from the SSW (200 degrees) at 17 MPH (15 knots; 7.7 m/s)
Visibility: 6 or more miles (10+ km)
Ceiling: 4000 feet AGL
Clouds: few clouds at 2500 feet AGL
broken clouds at 4000 feet AGL
Weather: no significant weather observed at this time

METAR text: YMML 030100Z 20014KT 9999 FEW025 BKN040 12/04 Q1030
Conditions at: YMML (MELBOURNE INTL A, AU) observed 0100 UTC 03 June 2020
Temperature: 12.0°C (54°F)
Dewpoint: 4.0°C (39°F) [RH = 58%]
Pressure (altimeter): 30.41 inches Hg (1030.0 mb)
Winds: from the SSW (200 degrees) at 16 MPH (14 knots; 7.2 m/s)
Visibility: 6 or more miles (10+ km)
Ceiling: 4000 feet AGL
Clouds: few clouds at 2500 feet AGL
broken clouds at 4000 feet AGL
Weather: no significant weather observed at this time

METAR text: YMML 030030Z 21013KT 9999 FEW020 BKN045 12/05 Q1030 FM0200 18014KT 9999 SCT040
Conditions at: YMML (MELBOURNE INTL A, AU) observed 0030 UTC 03 June 2020
Temperature: 12.0°C (54°F)
Dewpoint: 5.0°C (41°F) [RH = 62%]
Pressure (altimeter): 30.41 inches Hg (1030.0 mb)
Winds: from the SSW (210 degrees) at 15 MPH (13 knots; 6.7 m/s)
Visibility: 6 or more miles (10+ km)
Ceiling: 4500 feet AGL
Clouds: few clouds at 2000 feet AGL
broken clouds at 4500 feet AGL
Weather: no significant weather observed at this time

METAR text: YMML 030000Z 21007KT 9999 FEW020 BKN045 11/07 Q1029 FM0200 18014KT 9999 SCT040
Conditions at: YMML (MELBOURNE INTL A, AU) observed 0000 UTC 03 June 2020
Temperature: 11.0°C (52°F)
Dewpoint: 7.0°C (45°F) [RH = 76%]
Pressure (altimeter): 30.38 inches Hg (1029.0 mb)
Winds: from the SSW (210 degrees) at 8 MPH (7 knots; 3.6 m/s)
Visibility: 6 or more miles (10+ km)
Ceiling: 4500 feet AGL
Clouds: few clouds at 2000 feet AGL
broken clouds at 4500 feet AGL
Weather: no significant weather observed at this time

METAR text: YMML 022330Z 21008KT 9999 FEW025 BKN045 11/07 Q1029 FM0200 18014KT 9999 SCT040
Conditions at: YMML (MELBOURNE INTL A, AU) observed 2330 UTC 02 June 2020
Temperature: 11.0°C (52°F)
Dewpoint: 7.0°C (45°F) [RH = 76%]
Pressure (altimeter): 30.38 inches Hg (1029.0 mb)
Winds: from the SSW (210 degrees) at 9 MPH (8 knots; 4.1 m/s)
Visibility: 6 or more miles (10+ km)
Ceiling: 4500 feet AGL
Clouds: few clouds at 2500 feet AGL
broken clouds at 4500 feet AGL
Weather: no significant weather observed at this time

METAR text: YMML 022300Z 23009KT 9999 FEW025 BKN045 10/10 Q1029
Conditions at: YMML (MELBOURNE INTL A, AU) observed 2300 UTC 02 June 2020
Temperature: 10.0°C (50°F)
Dewpoint: 10.0°C (50°F) [RH = 100%]
Pressure (altimeter): 30.38 inches Hg (1029.0 mb)
Winds: from the SW (230 degrees) at 10 MPH (9 knots; 4.6 m/s)
Visibility: 6 or more miles (10+ km)
Ceiling: 4500 feet AGL
Clouds: few clouds at 2500 feet AGL
broken clouds at 4500 feet AGL
Weather: no significant weather observed at this time

METAR text: YMML 022230Z 23010KT 9999 FEW022 SCT045 09/09 Q1028
Conditions at: YMML (MELBOURNE INTL A, AU) observed 2230 UTC 02 June 2020
Temperature: 9.0°C (48°F)
Dewpoint: 9.0°C (48°F) [RH = 100%]
Pressure (altimeter): 30.35 inches Hg (1028.0 mb)
Winds: from the SW (230 degrees) at 12 MPH (10 knots; 5.1 m/s)
Visibility: 6 or more miles (10+ km)
Ceiling: at least 12,000 feet AGL
Clouds: few clouds at 2200 feet AGL
scattered clouds at 4500 feet AGL
Weather: no significant weather observed at this time

METAR text: YMML 022200Z 23011KT 9999 FEW032 BKN045 10/10 Q1027
Conditions at: YMML (MELBOURNE INTL A, AU) observed 2200 UTC 02 June 2020
Temperature: 10.0°C (50°F)
Dewpoint: 10.0°C (50°F) [RH = 100%]
Pressure (altimeter): 30.32 inches Hg (1027.0 mb)
Winds: from the SW (230 degrees) at 13 MPH (11 knots; 5.7 m/s)
Visibility: 6 or more miles (10+ km)
Ceiling: 4500 feet AGL
Clouds: few clouds at 3200 feet AGL
broken clouds at 4500 feet AGL
Weather: no significant weather observed at this time

METAR text: YMML 022130Z 23010KT 9999 DZ FEW030 BKN045 10/10 Q1027 NOSIG
Conditions at: YMML (MELBOURNE INTL A, AU) observed 2130 UTC 02 June 2020
Temperature: 10.0°C (50°F)
Dewpoint: 10.0°C (50°F) [RH = 100%]
Pressure (altimeter): 30.32 inches Hg (1027.0 mb)
Winds: from the SW (230 degrees) at 12 MPH (10 knots; 5.1 m/s)
Visibility: 6 or more miles (10+ km)
Ceiling: 4500 feet AGL
Clouds: few clouds at 3000 feet AGL
broken clouds at 4500 feet AGL
Weather: DZ  (moderate drizzle)

METAR text: YMML 022100Z 23011KT 9999 SCT035 BKN044 10/10 Q1026
Conditions at: YMML (MELBOURNE INTL A, AU) observed 2100 UTC 02 June 2020
Temperature: 10.0°C (50°F)
Dewpoint: 10.0°C (50°F) [RH = 100%]
Pressure (altimeter): 30.30 inches Hg (1026.0 mb)
Winds: from the SW (230 degrees) at 13 MPH (11 knots; 5.7 m/s)
Visibility: 6 or more miles (10+ km)
Ceiling: 4400 feet AGL
Clouds: scattered clouds at 3500 feet AGL
broken clouds at 4400 feet AGL
Weather: no significant weather observed at this time

METAR text: YMML 022030Z 23009KT 9999 SCT032 BKN049 09/09 Q1026
Conditions at: YMML (MELBOURNE INTL A, AU) observed 2030 UTC 02 June 2020
Temperature: 9.0°C (48°F)
Dewpoint: 9.0°C (48°F) [RH = 100%]
Pressure (altimeter): 30.30 inches Hg (1026.0 mb)
Winds: from the SW (230 degrees) at 10 MPH (9 knots; 4.6 m/s)
Visibility: 6 or more miles (10+ km)
Ceiling: 4900 feet AGL
Clouds: scattered clouds at 3200 feet AGL
broken clouds at 4900 feet AGL
Weather: no significant weather observed at this time

METAR text: YMML 022000Z 23014KT 9999 SCT034 BKN045 10/09 Q1025
Conditions at: YMML (MELBOURNE INTL A, AU) observed 2000 UTC 02 June 2020
Temperature: 10.0°C (50°F)
Dewpoint: 9.0°C (48°F) [RH = 93%]
Pressure (altimeter): 30.27 inches Hg (1025.0 mb)
Winds: from the SW (230 degrees) at 16 MPH (14 knots; 7.2 m/s)
Visibility: 6 or more miles (10+ km)
Ceiling: 4500 feet AGL
Clouds: scattered clouds at 3400 feet AGL
broken clouds at 4500 feet AGL
Weather: no significant weather observed at this time

METAR text: YMML 021930Z 23013KT 9999 OVC047 10/07 Q1024 NOSIG
Conditions at: YMML (MELBOURNE INTL A, AU) observed 1930 UTC 02 June 2020
Temperature: 10.0°C (50°F)
Dewpoint: 7.0°C (45°F) [RH = 82%]
Pressure (altimeter): 30.24 inches Hg (1024.0 mb)
Winds: from the SW (230 degrees) at 15 MPH (13 knots; 6.7 m/s)
Visibility: 6 or more miles (10+ km)
Ceiling: 4700 feet AGL
Clouds: overcast cloud deck at 4700 feet AGL
Weather: no significant weather observed at this time

METAR text: YMML 021900Z 23011KT 9999 BKN045 10/06 Q1024
Conditions at: YMML (MELBOURNE INTL A, AU) observed 1900 UTC 02 June 2020
Temperature: 10.0°C (50°F)
Dewpoint: 6.0°C (43°F) [RH = 76%]
Pressure (altimeter): 30.24 inches Hg (1024.0 mb)
Winds: from the SW (230 degrees) at 13 MPH (11 knots; 5.7 m/s)
Visibility: 6 or more miles (10+ km)
Ceiling: 4500 feet AGL
Clouds: broken clouds at 4500 feet AGL
Weather: no significant weather observed at this time

METAR text: YMML 021830Z 23014KT 9999 BKN039 BKN047 10/06 Q1024 NOSIG
Conditions at: YMML (MELBOURNE INTL A, AU) observed 1830 UTC 02 June 2020
Temperature: 10.0°C (50°F)
Dewpoint: 6.0°C (43°F) [RH = 76%]
Pressure (altimeter): 30.24 inches Hg (1024.0 mb)
Winds: from the SW (230 degrees) at 16 MPH (14 knots; 7.2 m/s)
Visibility: 6 or more miles (10+ km)
Ceiling: 3900 feet AGL
Clouds: broken clouds at 3900 feet AGL
broken clouds at 4700 feet AGL
Weather: no significant weather observed at this time

METAR text: YMML 021800Z 24009KT 9999 OVC047 10/07 Q1023
Conditions at: YMML (MELBOURNE INTL A, AU) observed 1800 UTC 02 June 2020
Temperature: 10.0°C (50°F)
Dewpoint: 7.0°C (45°F) [RH = 82%]
Pressure (altimeter): 30.21 inches Hg (1023.0 mb)
Winds: from the WSW (240 degrees) at 10 MPH (9 knots; 4.6 m/s)
Visibility: 6 or more miles (10+ km)
Ceiling: 4700 feet AGL
Clouds: overcast cloud deck at 4700 feet AGL
Weather: no significant weather observed at this time

METAR text: YMML 021730Z 24010KT CAVOK 09/07 Q1023 NOSIG
Conditions at: YMML (MELBOURNE INTL A, AU) observed 1730 UTC 02 June 2020
Temperature: 9.0°C (48°F)
Dewpoint: 7.0°C (45°F) [RH = 87%]
Pressure (altimeter): 30.21 inches Hg (1023.0 mb)
Winds: from the WSW (240 degrees) at 12 MPH (10 knots; 5.1 m/s)
Visibility: 6 or more miles (10+ km)
Ceiling: ceiling and visibility are OK
Clouds: unknown
Weather: no significant weather observed at this time

METAR text: YMML 021700Z 20009KT 9999 -SHRA BKN029 OVC040 10/07 Q1023
Conditions at: YMML (MELBOURNE INTL A, AU) observed 1700 UTC 02 June 2020
Temperature: 10.0°C (50°F)
Dewpoint: 7.0°C (45°F) [RH = 82%]
Pressure (altimeter): 30.21 inches Hg (1023.0 mb)
Winds: from the SSW (200 degrees) at 10 MPH (9 knots; 4.6 m/s)
Visibility: 6 or more miles (10+ km)
Ceiling: 2900 feet AGL
Clouds: broken clouds at 2900 feet AGL
overcast cloud deck at 4000 feet AGL
Weather: -SHRA  (light rain showers)

METAR text: YMML 021630Z 22008KT CAVOK 10/08 Q1023 NOSIG
Conditions at: YMML (MELBOURNE INTL A, AU) observed 1630 UTC 02 June 2020
Temperature: 10.0°C (50°F)
Dewpoint: 8.0°C (46°F) [RH = 87%]
Pressure (altimeter): 30.21 inches Hg (1023.0 mb)
Winds: from the SW (220 degrees) at 9 MPH (8 knots; 4.1 m/s)
Visibility: 6 or more miles (10+ km)
Ceiling: ceiling and visibility are OK
Clouds: unknown
Weather: no significant weather observed at this time

METAR text: YMML 021600Z 23013KT 9999 FEW045 BKN050 10/08 Q1023
Conditions at: YMML (MELBOURNE INTL A, AU) observed 1600 UTC 02 June 2020
Temperature: 10.0°C (50°F)
Dewpoint: 8.0°C (46°F) [RH = 87%]
Pressure (altimeter): 30.21 inches Hg (1023.0 mb)
Winds: from the SW (230 degrees) at 15 MPH (13 knots; 6.7 m/s)
Visibility: 6 or more miles (10+ km)
Ceiling: 5000 feet AGL
Clouds: few clouds at 4500 feet AGL
broken clouds at 5000 feet AGL
Weather: no significant weather observed at this time

METAR text: YMML 021530Z 24012KT 9999 VCSH FEW042 BKN051 10/07 Q1022 NOSIG
Conditions at: YMML (MELBOURNE INTL A, AU) observed 1530 UTC 02 June 2020
Temperature: 10.0°C (50°F)
Dewpoint: 7.0°C (45°F) [RH = 82%]
Pressure (altimeter): 30.18 inches Hg (1022.0 mb)
Winds: from the WSW (240 degrees) at 14 MPH (12 knots; 6.2 m/s)
Visibility: 6 or more miles (10+ km)
Ceiling: 5100 feet AGL
Clouds: few clouds at 4200 feet AGL
broken clouds at 5100 feet AGL
Weather: VCSH  (showers in vicinity)

METAR text: YMML 021500Z 24012KT CAVOK 10/08 Q1022 INTER 1530/1600 5000 SHRA BKN010
Conditions at: YMML (MELBOURNE INTL A, AU) observed 1500 UTC 02 June 2020
Temperature: 10.0°C (50°F)
Dewpoint: 8.0°C (46°F) [RH = 87%]
Pressure (altimeter): 30.18 inches Hg (1022.0 mb)
Winds: from the WSW (240 degrees) at 14 MPH (12 knots; 6.2 m/s)
Visibility: 6 or more miles (10+ km)
Ceiling: ceiling and visibility are OK
Clouds: unknown
Weather: no significant weather observed at this time

METAR text: YMML 021430Z 25009KT 9999 FEW020 BKN053 10/08 Q1022
Conditions at: YMML (MELBOURNE INTL A, AU) observed 1430 UTC 02 June 2020
Temperature: 10.0°C (50°F)
Dewpoint: 8.0°C (46°F) [RH = 87%]
Pressure (altimeter): 30.18 inches Hg (1022.0 mb)
Winds: from the WSW (250 degrees) at 10 MPH (9 knots; 4.6 m/s)
Visibility: 6 or more miles (10+ km)
Ceiling: 5300 feet AGL
Clouds: few clouds at 2000 feet AGL
broken clouds at 5300 feet AGL
Weather: no significant weather observed at this time

METAR text: YMML 021400Z 27012KT 9999 FEW043 11/09 Q1021 TEMPO 1430/1600 5000 SHRA BKN010
Conditions at: YMML (MELBOURNE INTL A, AU) observed 1400 UTC 02 June 2020
Temperature: 11.0°C (52°F)
Dewpoint: 9.0°C (48°F) [RH = 87%]
Pressure (altimeter): 30.15 inches Hg (1021.0 mb)
Winds: from the W (270 degrees) at 14 MPH (12 knots; 6.2 m/s)
Visibility: 6 or more miles (10+ km)
Ceiling: at least 12,000 feet AGL
Clouds: few clouds at 4300 feet AGL
Weather: no significant weather observed at this time

METAR text: YMML 021346Z 25013KT 9999 FEW012 BKN032 11/09 Q1021 TEMPO 1430/1600 5000 SHRA BKN010
Conditions at: YMML (MELBOURNE INTL A, AU) observed 1346 UTC 02 June 2020
Temperature: 11.0°C (52°F)
Dewpoint: 9.0°C (48°F) [RH = 87%]
Pressure (altimeter): 30.15 inches Hg (1021.0 mb)
Winds: from the WSW (250 degrees) at 15 MPH (13 knots; 6.7 m/s)
Visibility: 6 or more miles (10+ km)
Ceiling: 3200 feet AGL
Clouds: few clouds at 1200 feet AGL
broken clouds at 3200 feet AGL
Weather: no significant weather observed at this time

METAR text: YMML 021330Z 24018KT 9999 BKN012 BKN017 11/09 Q1021 FM1330 24015KT 9999 -SHRA SCT015 BKN020 TEMPO 1330/1600 5000 SHRA BKN010
Conditions at: YMML (MELBOURNE INTL A, AU) observed 1330 UTC 02 June 2020
Temperature: 11.0°C (52°F)
Dewpoint: 9.0°C (48°F) [RH = 87%]
Pressure (altimeter): 30.15 inches Hg (1021.0 mb)
Winds: from the WSW (240 degrees) at 21 MPH (18 knots; 9.3 m/s)
Visibility: 6 or more miles (10+ km)
Ceiling: 1200 feet AGL
Clouds: broken clouds at 1200 feet AGL
broken clouds at 1700 feet AGL
Weather: no significant weather observed at this time

METAR text: YMML 021317Z 24012G24KT 9999 SCT015 OVC020 11/10 Q1021 TEMPO 1317/1600 5000 SHRA BKN010
Conditions at: YMML (MELBOURNE INTL A, AU) observed 1317 UTC 02 June 2020
Temperature: 11.0°C (52°F)
Dewpoint: 10.0°C (50°F) [RH = 94%]
Pressure (altimeter): 30.15 inches Hg (1021.0 mb)
Winds: from the WSW (240 degrees) at 14 MPH (12 knots; 6.2 m/s)
gusting to 28 MPH (24 knots; 12.3 m/s)
Visibility: 6 or more miles (10+ km)
Ceiling: 2000 feet AGL
Clouds: scattered clouds at 1500 feet AGL
overcast cloud deck at 2000 feet AGL
Weather: no significant weather observed at this time

METAR text: YMML 021300Z 25009KT 9999 -SHRA BKN019 OVC027 12/09 Q1021 TEMPO 1300/1600 5000 SHRA BKN010
Conditions at: YMML (MELBOURNE INTL A, AU) observed 1300 UTC 02 June 2020
Temperature: 12.0°C (54°F)
Dewpoint: 9.0°C (48°F) [RH = 82%]
Pressure (altimeter): 30.15 inches Hg (1021.0 mb)
Winds: from the WSW (250 degrees) at 10 MPH (9 knots; 4.6 m/s)
Visibility: 6 or more miles (10+ km)
Ceiling: 1900 feet AGL
Clouds: broken clouds at 1900 feet AGL
overcast cloud deck at 2700 feet AGL
Weather: -SHRA  (light rain showers)

METAR text: YMML 021230Z 27014KT 9999 FEW018 BKN023 13/08 Q1021 FM1300 25014KT 9999 -SHRA SCT015 BKN020 TEMPO 1300/1530 5000 SHRA BKN010
Conditions at: YMML (MELBOURNE INTL A, AU) observed 1230 UTC 02 June 2020
Temperature: 13.0°C (55°F)
Dewpoint: 8.0°C (46°F) [RH = 72%]
Pressure (altimeter): 30.15 inches Hg (1021.0 mb)
Winds: from the W (270 degrees) at 16 MPH (14 knots; 7.2 m/s)
Visibility: 6 or more miles (10+ km)
Ceiling: 2300 feet AGL
Clouds: few clouds at 1800 feet AGL
broken clouds at 2300 feet AGL
Weather: no significant weather observed at this time

METAR text: YMML 021200Z 27015KT 9999 BKN023 BKN027 13/08 Q1020 FM1300 25014KT 9999 -SHRA SCT015 BKN020 TEMPO 1300/1500 5000 SHRA BKN010
Conditions at: YMML (MELBOURNE INTL A, AU) observed 1200 UTC 02 June 2020
Temperature: 13.0°C (55°F)
Dewpoint: 8.0°C (46°F) [RH = 72%]
Pressure (altimeter): 30.12 inches Hg (1020.0 mb)
Winds: from the W (270 degrees) at 17 MPH (15 knots; 7.7 m/s)
Visibility: 6 or more miles (10+ km)
Ceiling: 2300 feet AGL
Clouds: broken clouds at 2300 feet AGL
broken clouds at 2700 feet AGL
Weather: no significant weather observed at this time

METAR text: YMML 021130Z 28011KT 9999 FEW029 BKN039 13/08 Q1020
Conditions at: YMML (MELBOURNE INTL A, AU) observed 1130 UTC 02 June 2020
Temperature: 13.0°C (55°F)
Dewpoint: 8.0°C (46°F) [RH = 72%]
Pressure (altimeter): 30.12 inches Hg (1020.0 mb)
Winds: from the W (280 degrees) at 13 MPH (11 knots; 5.7 m/s)
Visibility: 6 or more miles (10+ km)
Ceiling: 3900 feet AGL
Clouds: few clouds at 2900 feet AGL
broken clouds at 3900 feet AGL
Weather: no significant weather observed at this time

METAR text: YMML 021100Z 28012KT 9999 BKN029 BKN036 13/08 Q1020 TEMPO 1230/1400 5000 SHRA BKN010
Conditions at: YMML (MELBOURNE INTL A, AU) observed 1100 UTC 02 June 2020
Temperature: 13.0°C (55°F)
Dewpoint: 8.0°C (46°F) [RH = 72%]
Pressure (altimeter): 30.12 inches Hg (1020.0 mb)
Winds: from the W (280 degrees) at 14 MPH (12 knots; 6.2 m/s)
Visibility: 6 or more miles (10+ km)
Ceiling: 2900 feet AGL
Clouds: broken clouds at 2900 feet AGL
broken clouds at 3600 feet AGL
Weather: no significant weather observed at this time

METAR text: YMML 021030Z 29010KT 9999 FEW025 BKN029 13/08 Q1020 TEMPO 1230/1330 5000 SHRA BKN010
Conditions at: YMML (MELBOURNE INTL A, AU) observed 1030 UTC 02 June 2020
Temperature: 13.0°C (55°F)
Dewpoint: 8.0°C (46°F) [RH = 72%]
Pressure (altimeter): 30.12 inches Hg (1020.0 mb)
Winds: from the WNW (290 degrees) at 12 MPH (10 knots; 5.1 m/s)
Visibility: 6 or more miles (10+ km)
Ceiling: 2900 feet AGL
Clouds: few clouds at 2500 feet AGL
broken clouds at 2900 feet AGL
Weather: no significant weather observed at this time

METAR text: YMML 021000Z 28008KT 9999 BKN029 BKN036 13/08 Q1020 TEMPO 1230/1300 5000 SHRA BKN010
Conditions at: YMML (MELBOURNE INTL A, AU) observed 1000 UTC 02 June 2020
Temperature: 13.0°C (55°F)
Dewpoint: 8.0°C (46°F) [RH = 72%]
Pressure (altimeter): 30.12 inches Hg (1020.0 mb)
Winds: from the W (280 degrees) at 9 MPH (8 knots; 4.1 m/s)
Visibility: 6 or more miles (10+ km)
Ceiling: 2900 feet AGL
Clouds: broken clouds at 2900 feet AGL
broken clouds at 3600 feet AGL
Weather: no significant weather observed at this time

METAR text: YMML 020930Z 29010KT 9999 FEW027 BKN031 13/08 Q1019 NOSIG
Conditions at: YMML (MELBOURNE INTL A, AU) observed 0930 UTC 02 June 2020
Temperature: 13.0°C (55°F)
Dewpoint: 8.0°C (46°F) [RH = 72%]
Pressure (altimeter): 30.09 inches Hg (1019.0 mb)
Winds: from the WNW (290 degrees) at 12 MPH (10 knots; 5.1 m/s)
Visibility: 6 or more miles (10+ km)
Ceiling: 3100 feet AGL
Clouds: few clouds at 2700 feet AGL
broken clouds at 3100 feet AGL
Weather: no significant weather observed at this time

METAR text: YMML 020900Z 31009KT 9999 FEW027 BKN033 13/07 Q1019
Conditions at: YMML (MELBOURNE INTL A, AU) observed 0900 UTC 02 June 2020
Temperature: 13.0°C (55°F)
Dewpoint: 7.0°C (45°F) [RH = 67%]
Pressure (altimeter): 30.09 inches Hg (1019.0 mb)
Winds: from the NW (310 degrees) at 10 MPH (9 knots; 4.6 m/s)
Visibility: 6 or more miles (10+ km)
Ceiling: 3300 feet AGL
Clouds: few clouds at 2700 feet AGL
broken clouds at 3300 feet AGL
Weather: no significant weather observed at this time

METAR text: YMML 020830Z 31009KT 9999 BKN035 13/07 Q1019 NOSIG
Conditions at: YMML (MELBOURNE INTL A, AU) observed 0830 UTC 02 June 2020
Temperature: 13.0°C (55°F)
Dewpoint: 7.0°C (45°F) [RH = 67%]
Pressure (altimeter): 30.09 inches Hg (1019.0 mb)
Winds: from the NW (310 degrees) at 10 MPH (9 knots; 4.6 m/s)
Visibility: 6 or more miles (10+ km)
Ceiling: 3500 feet AGL
Clouds: broken clouds at 3500 feet AGL
Weather: no significant weather observed at this time

METAR text: YMML 020800Z 32009KT 9999 BKN035 13/07 Q1019
Conditions at: YMML (MELBOURNE INTL A, AU) observed 0800 UTC 02 June 2020
Temperature: 13.0°C (55°F)
Dewpoint: 7.0°C (45°F) [RH = 67%]
Pressure (altimeter): 30.09 inches Hg (1019.0 mb)
Winds: from the NW (320 degrees) at 10 MPH (9 knots; 4.6 m/s)
Visibility: 6 or more miles (10+ km)
Ceiling: 3500 feet AGL
Clouds: broken clouds at 3500 feet AGL
Weather: no significant weather observed at this time

METAR text: YMML 020730Z 30008KT 9999 BKN035 13/08 Q1019 NOSIG
Conditions at: YMML (MELBOURNE INTL A, AU) observed 0730 UTC 02 June 2020
Temperature: 13.0°C (55°F)
Dewpoint: 8.0°C (46°F) [RH = 72%]
Pressure (altimeter): 30.09 inches Hg (1019.0 mb)
Winds: from the WNW (300 degrees) at 9 MPH (8 knots; 4.1 m/s)
Visibility: 6 or more miles (10+ km)
Ceiling: 3500 feet AGL
Clouds: broken clouds at 3500 feet AGL
Weather: no significant weather observed at this time

METAR text: YMML 020700Z 30009KT 9999 FEW027 BKN037 13/08 Q1018
Conditions at: YMML (MELBOURNE INTL A, AU) observed 0700 UTC 02 June 2020
Temperature: 13.0°C (55°F)
Dewpoint: 8.0°C (46°F) [RH = 72%]
Pressure (altimeter): 30.06 inches Hg (1018.0 mb)
Winds: from the WNW (300 degrees) at 10 MPH (9 knots; 4.6 m/s)
Visibility: 6 or more miles (10+ km)
Ceiling: 3700 feet AGL
Clouds: few clouds at 2700 feet AGL
broken clouds at 3700 feet AGL
Weather: no significant weather observed at this time

METAR text: YMML 020630Z 30011KT 9999 FEW027 BKN037 13/07 Q1018 NOSIG
Conditions at: YMML (MELBOURNE INTL A, AU) observed 0630 UTC 02 June 2020
Temperature: 13.0°C (55°F)
Dewpoint: 7.0°C (45°F) [RH = 67%]
Pressure (altimeter): 30.06 inches Hg (1018.0 mb)
Winds: from the WNW (300 degrees) at 13 MPH (11 knots; 5.7 m/s)
Visibility: 6 or more miles (10+ km)
Ceiling: 3700 feet AGL
Clouds: few clouds at 2700 feet AGL
broken clouds at 3700 feet AGL
Weather: no significant weather observed at this time

METAR text: YMML 020600Z 31010KT 9999 FEW027 BKN041 14/07 Q1018
Conditions at: YMML (MELBOURNE INTL A, AU) observed 0600 UTC 02 June 2020
Temperature: 14.0°C (57°F)
Dewpoint: 7.0°C (45°F) [RH = 63%]
Pressure (altimeter): 30.06 inches Hg (1018.0 mb)
Winds: from the NW (310 degrees) at 12 MPH (10 knots; 5.1 m/s)
Visibility: 6 or more miles (10+ km)
Ceiling: 4100 feet AGL
Clouds: few clouds at 2700 feet AGL
broken clouds at 4100 feet AGL
Weather: no significant weather observed at this time

METAR text: YMML 020530Z 27010KT 9999 FEW027 BKN042 14/08 Q1018 NOSIG
Conditions at: YMML (MELBOURNE INTL A, AU) observed 0530 UTC 02 June 2020
Temperature: 14.0°C (57°F)
Dewpoint: 8.0°C (46°F) [RH = 67%]
Pressure (altimeter): 30.06 inches Hg (1018.0 mb)
Winds: from the W (270 degrees) at 12 MPH (10 knots; 5.1 m/s)
Visibility: 6 or more miles (10+ km)
Ceiling: 4200 feet AGL
Clouds: few clouds at 2700 feet AGL
broken clouds at 4200 feet AGL
Weather: no significant weather observed at this time

Forecast for: YMML (MELBOURNE INTL A, AU)
Text: TAF YMML 031643Z 0318/0500 36006KT 9999 BKN030
Forecast period: 1800 to 2300 UTC 03 June 2020
Forecast type: FROM: standard forecast or significant change
Winds: from the N (360 degrees) at 7 MPH (6 knots; 3.1 m/s)
Visibility: 6 or more miles 10+ km)
Ceiling: 3000 feet AGL
Clouds: broken clouds at 3000 feet AGL
Weather: no significant weather forecast for this period
Text: BECMG 0323/0401 VRB03KT CAVOK
Forecast period: 2300 UTC 03 June 2020 to 1100 UTC 04 June 2020
Forecast type: BECOMING: Conditions expected to become as follows by 0100 UTC 04 June 2020
Winds: variable direction winds at 3 MPH (3 knots; 1.5 m/s)
Visibility: 6 or more miles 10+ km)
Ceiling: unknown
Clouds: missing
Weather: NSW  (no significant weather)
Text: FM041100 36006KT CAVOK
Forecast period: 1100 UTC 04 June 2020 to 0000 UTC 05 June 2020
Forecast type: FROM: standard forecast or significant change
Winds: from the N (360 degrees) at 7 MPH (6 knots; 3.1 m/s)
Visibility: 6 or more miles 10+ km)
Ceiling: unknown
Clouds: missing
Weather: NSW  (no significant weather)